createdAt,value
2017-03-10T00:01:02.043Z,0
2017-03-10T00:02:11.936Z,0
2017-03-10T00:03:21.041Z,0
2017-03-10T00:04:31.663Z,0
2017-03-10T00:05:41.537Z,0
2017-03-10T00:06:51.867Z,0
2017-03-10T00:08:01.751Z,0
2017-03-10T00:09:11.238Z,0
2017-03-10T00:10:22.182Z,0
2017-03-10T00:11:32.076Z,0
2017-03-10T00:12:42.754Z,0
2017-03-10T00:13:52.646Z,0
2017-03-10T00:15:03.322Z,0
2017-03-10T00:16:14.153Z,0
2017-03-10T00:17:24.029Z,0
2017-03-10T00:18:34.723Z,0
2017-03-10T00:19:45.378Z,0
2017-03-10T00:20:55.661Z,0
2017-03-10T00:22:05.875Z,0
2017-03-10T00:23:15.753Z,0
2017-03-10T00:24:26.039Z,0
2017-03-10T00:25:36.336Z,0
2017-03-10T00:26:47.018Z,0
2017-03-10T00:27:58.042Z,0
2017-03-10T00:29:07.922Z,0
2017-03-10T00:30:18.184Z,0
2017-03-10T00:31:28.845Z,0
2017-03-10T00:32:39.101Z,0
2017-03-10T00:33:49.687Z,0
2017-03-10T00:34:59.971Z,0
2017-03-10T00:36:09.872Z,0
2017-03-10T00:37:20.157Z,0
2017-03-10T00:38:30.842Z,0
2017-03-10T00:39:40.883Z,0
2017-03-10T00:40:51.825Z,0
2017-03-10T00:42:01.721Z,0
2017-03-10T00:43:12.379Z,0
2017-03-10T00:44:22.260Z,0
2017-03-10T00:45:32.840Z,0
2017-03-10T00:46:42.712Z,0
2017-03-10T00:47:52.653Z,0
2017-03-10T00:49:02.920Z,0
2017-03-10T00:50:12.797Z,0
2017-03-10T00:51:23.429Z,0
2017-03-10T00:52:33.310Z,0
2017-03-10T00:53:43.597Z,0
2017-03-10T00:54:54.262Z,0
2017-03-10T00:56:04.913Z,0
2017-03-10T00:57:15.735Z,0
2017-03-10T00:58:26.405Z,0
2017-03-10T00:59:36.660Z,0
2017-03-10T01:00:47.345Z,0
2017-03-10T01:01:57.617Z,0
2017-03-10T01:03:08.529Z,0
2017-03-10T01:04:18.794Z,0
2017-03-10T01:05:29.084Z,0
2017-03-10T01:06:39.742Z,0
2017-03-10T01:07:50.398Z,0
2017-03-10T01:09:00.457Z,0
2017-03-10T01:10:10.731Z,0
2017-03-10T01:11:21.409Z,0
2017-03-10T01:12:32.315Z,0
2017-03-10T01:13:42.611Z,0
2017-03-10T01:14:52.646Z,0
2017-03-10T01:16:02.917Z,0
2017-03-10T01:17:13.192Z,0
2017-03-10T01:18:23.864Z,0
2017-03-10T01:19:34.125Z,0
2017-03-10T01:20:44.575Z,0
2017-03-10T01:21:55.232Z,0
2017-03-10T01:23:05.899Z,0
2017-03-10T01:24:16.216Z,0
2017-03-10T01:25:26.111Z,0
2017-03-10T01:26:36.933Z,0
2017-03-10T01:27:47.200Z,0
2017-03-10T01:28:57.472Z,0
2017-03-10T01:30:07.791Z,0
2017-03-10T01:31:18.091Z,0
2017-03-10T01:32:28.693Z,0
2017-03-10T01:33:38.990Z,0
2017-03-10T01:34:49.953Z,0
2017-03-10T01:35:59.443Z,0
2017-03-10T01:37:09.741Z,0
2017-03-10T01:38:20.317Z,0
2017-03-10T01:39:30.586Z,0
2017-03-10T01:40:41.281Z,0
2017-03-10T01:41:51.166Z,0
2017-03-10T01:43:01.856Z,0
2017-03-10T01:44:12.793Z,0
2017-03-10T01:45:23.060Z,0
2017-03-10T01:46:33.336Z,0
2017-03-10T01:47:43.208Z,0
2017-03-10T01:48:53.481Z,0
2017-03-10T01:50:04.535Z,0
2017-03-10T01:51:15.197Z,0
2017-03-10T01:52:25.477Z,0
2017-03-10T01:53:35.744Z,0
2017-03-10T01:54:46.015Z,0
2017-03-10T01:55:56.812Z,0
2017-03-10T01:57:06.712Z,0
2017-03-10T01:58:17.361Z,0
2017-03-10T01:59:28.047Z,0
2017-03-10T02:00:38.335Z,0
2017-03-10T02:01:48.374Z,0
2017-03-10T02:02:58.643Z,0
2017-03-10T02:04:08.925Z,0
2017-03-10T02:05:18.828Z,0
2017-03-10T02:06:29.130Z,0
2017-03-10T02:07:39.178Z,0
2017-03-10T02:08:49.494Z,0
2017-03-10T02:10:00.150Z,0
2017-03-10T02:11:10.059Z,0
2017-03-10T02:12:20.744Z,0
2017-03-10T02:13:31.168Z,0
2017-03-10T02:14:41.846Z,0
2017-03-10T02:15:52.502Z,0
2017-03-10T02:17:02.790Z,0
2017-03-10T02:18:12.303Z,0
2017-03-10T02:19:22.715Z,0
2017-03-10T02:20:32.976Z,0
2017-03-10T02:21:42.858Z,0
2017-03-10T02:22:53.144Z,0
2017-03-10T02:24:03.821Z,0
2017-03-10T02:25:13.994Z,0
2017-03-10T02:26:23.862Z,0
2017-03-10T02:27:33.745Z,0
2017-03-10T02:28:44.400Z,0
2017-03-10T02:29:54.687Z,0
2017-03-10T02:31:05.498Z,0
2017-03-10T02:32:15.769Z,0
2017-03-10T02:33:25.282Z,0
2017-03-10T02:34:35.960Z,0
2017-03-10T02:35:46.230Z,0
2017-03-10T02:36:56.712Z,0
2017-03-10T02:38:06.976Z,0
2017-03-10T02:39:17.273Z,0
2017-03-10T02:40:27.550Z,0
2017-03-10T02:41:38.238Z,0
2017-03-10T02:42:48.809Z,0
2017-03-10T02:43:59.080Z,0
2017-03-10T02:45:09.750Z,0
2017-03-10T02:46:20.022Z,0
2017-03-10T02:47:30.343Z,0
2017-03-10T02:48:40.761Z,0
2017-03-10T02:49:51.036Z,0
2017-03-10T02:51:01.691Z,0
2017-03-10T02:52:12.338Z,0
2017-03-10T02:53:21.895Z,0
2017-03-10T02:54:32.797Z,0
2017-03-10T02:55:43.454Z,0
2017-03-10T02:56:54.115Z,0
2017-03-10T02:58:03.622Z,0
2017-03-10T02:59:14.280Z,0
2017-03-10T03:00:24.460Z,0
2017-03-10T03:01:34.322Z,0
2017-03-10T03:02:44.611Z,0
2017-03-10T03:03:54.884Z,0
2017-03-10T03:05:05.180Z,0
2017-03-10T03:06:16.012Z,0
2017-03-10T03:07:26.684Z,0
2017-03-10T03:08:36.952Z,0
2017-03-10T03:09:47.618Z,0
2017-03-10T03:10:58.289Z,0
2017-03-10T03:12:09.079Z,0
2017-03-10T03:13:19.739Z,0
2017-03-10T03:14:30.074Z,0
2017-03-10T03:15:39.555Z,0
2017-03-10T03:16:49.454Z,0
2017-03-10T03:18:00.531Z,0
2017-03-10T03:19:10.803Z,0
2017-03-10T03:20:21.073Z,0
2017-03-10T03:21:30.948Z,0
2017-03-10T03:22:40.846Z,0
2017-03-10T03:23:51.666Z,0
2017-03-10T03:25:01.189Z,0
2017-03-10T03:26:11.453Z,0
2017-03-10T03:27:22.147Z,0
2017-03-10T03:28:32.438Z,0
2017-03-10T03:29:43.243Z,0
2017-03-10T03:30:53.117Z,0
2017-03-10T03:32:02.626Z,0
2017-03-10T03:33:12.885Z,0
2017-03-10T03:34:23.174Z,0
2017-03-10T03:35:33.998Z,0
2017-03-10T03:36:44.259Z,0
2017-03-10T03:37:54.918Z,0
2017-03-10T03:39:05.225Z,0
2017-03-10T03:40:15.141Z,0
2017-03-10T03:41:25.673Z,0
2017-03-10T03:42:35.948Z,0
2017-03-10T03:43:46.233Z,0
2017-03-10T03:44:56.912Z,0
2017-03-10T03:46:06.805Z,0
2017-03-10T03:47:17.407Z,0
2017-03-10T03:48:28.098Z,0
2017-03-10T03:49:38.354Z,0
2017-03-10T03:50:48.616Z,0
2017-03-10T03:51:59.292Z,0
2017-03-10T03:53:10.191Z,0
2017-03-10T03:54:20.481Z,0
2017-03-10T03:55:30.377Z,0
2017-03-10T03:56:41.057Z,0
2017-03-10T03:57:50.935Z,0
2017-03-10T03:59:01.968Z,0
2017-03-10T04:00:11.845Z,0
2017-03-10T04:01:22.115Z,0
2017-03-10T04:02:32.388Z,0
2017-03-10T04:03:42.658Z,0
2017-03-10T04:04:53.557Z,0
2017-03-10T04:06:04.230Z,0
2017-03-10T04:07:14.121Z,0
2017-03-10T04:08:24.400Z,0
2017-03-10T04:09:34.654Z,0
2017-03-10T04:10:45.066Z,0
2017-03-10T04:11:54.960Z,0
2017-03-10T04:13:05.633Z,0
2017-03-10T04:14:15.512Z,0
2017-03-10T04:15:25.791Z,0
2017-03-10T04:16:36.149Z,0
2017-03-10T04:17:46.828Z,0
2017-03-10T04:18:56.741Z,0
2017-03-10T04:20:07.558Z,0
2017-03-10T04:21:17.434Z,0
2017-03-10T04:22:27.815Z,0
2017-03-10T04:23:38.081Z,0
2017-03-10T04:24:48.760Z,0
2017-03-10T04:25:59.021Z,0
2017-03-10T04:27:09.683Z,0
2017-03-10T04:28:20.646Z,0
2017-03-10T04:29:30.953Z,0
2017-03-10T04:30:40.438Z,0
2017-03-10T04:31:51.104Z,0
2017-03-10T04:33:01.405Z,0
2017-03-10T04:34:12.167Z,0
2017-03-10T04:35:22.050Z,0
2017-03-10T04:36:32.335Z,0
2017-03-10T04:37:42.619Z,0
2017-03-10T04:38:52.890Z,0
2017-03-10T04:40:03.117Z,0
2017-03-10T04:41:13.382Z,0
2017-03-10T04:42:24.075Z,0
2017-03-10T04:43:34.718Z,0
2017-03-10T04:44:44.232Z,0
2017-03-10T04:45:55.187Z,0
2017-03-10T04:47:05.089Z,0
2017-03-10T04:48:15.351Z,0
2017-03-10T04:49:26.042Z,0
2017-03-10T04:50:36.711Z,0
2017-03-10T04:51:47.328Z,0
2017-03-10T04:52:57.987Z,0
2017-03-10T04:54:08.636Z,0
2017-03-10T04:55:18.925Z,0
2017-03-10T04:56:28.798Z,0
2017-03-10T04:57:39.766Z,0
2017-03-10T04:58:50.053Z,0
2017-03-10T05:00:00.727Z,0
2017-03-10T05:01:11.407Z,0
2017-03-10T05:02:22.056Z,0
2017-03-10T05:03:32.675Z,0
2017-03-10T05:04:42.592Z,0
2017-03-10T05:05:53.252Z,0
2017-03-10T05:07:03.171Z,0
2017-03-10T05:08:13.445Z,0
2017-03-10T05:09:23.682Z,0
2017-03-10T05:10:33.955Z,0
2017-03-10T05:11:44.253Z,0
2017-03-10T05:12:54.529Z,0
2017-03-10T05:14:05.207Z,0
2017-03-10T05:15:16.028Z,0
2017-03-10T05:16:25.905Z,0
2017-03-10T05:17:36.190Z,0
2017-03-10T05:18:46.860Z,0
2017-03-10T05:19:57.132Z,0
2017-03-10T05:21:07.952Z,0
2017-03-10T05:22:17.864Z,0
2017-03-10T05:23:28.144Z,0
2017-03-10T05:24:38.799Z,0
2017-03-10T05:25:48.682Z,0
2017-03-10T05:26:59.706Z,0
2017-03-10T05:28:09.971Z,0
2017-03-10T05:29:20.238Z,0
2017-03-10T05:30:30.897Z,0
2017-03-10T05:31:40.784Z,0
2017-03-10T05:32:51.370Z,0
2017-03-10T05:34:02.052Z,0
2017-03-10T05:35:12.330Z,0
2017-03-10T05:36:23.046Z,0
2017-03-10T05:37:33.715Z,0
2017-03-10T05:38:44.152Z,0
2017-03-10T05:39:54.029Z,0
2017-03-10T05:41:04.711Z,0
2017-03-10T05:42:15.017Z,0
2017-03-10T05:43:24.897Z,0
2017-03-10T05:44:34.866Z,0
2017-03-10T05:45:45.135Z,0
2017-03-10T05:46:56.055Z,0
2017-03-10T05:48:06.358Z,0
2017-03-10T05:49:16.620Z,0
2017-03-10T05:50:27.466Z,0
2017-03-10T05:51:38.147Z,0
2017-03-10T05:52:48.410Z,0
2017-03-10T05:53:58.699Z,0
2017-03-10T05:55:09.512Z,0
2017-03-10T05:56:19.556Z,0
2017-03-10T05:57:30.201Z,0
2017-03-10T05:58:40.851Z,0
2017-03-10T05:59:51.120Z,0
2017-03-10T06:01:01.795Z,0
2017-03-10T06:02:12.639Z,0
2017-03-10T06:03:22.527Z,0
2017-03-10T06:04:33.185Z,0
2017-03-10T06:05:43.869Z,0
2017-03-10T06:06:54.512Z,0
2017-03-10T06:08:04.871Z,0
2017-03-10T06:09:15.145Z,0
2017-03-10T06:10:25.395Z,0
2017-03-10T06:11:36.067Z,0
2017-03-10T06:12:46.357Z,0
2017-03-10T06:13:56.446Z,0
2017-03-10T06:15:06.755Z,0
2017-03-10T06:16:17.339Z,5
2017-03-10T06:17:27.606Z,5
2017-03-10T06:18:38.261Z,5
2017-03-10T06:19:48.819Z,5
2017-03-10T06:20:59.495Z,5
2017-03-10T06:22:09.403Z,5
2017-03-10T06:23:19.704Z,5
2017-03-10T06:24:29.976Z,5
2017-03-10T06:25:40.808Z,5
2017-03-10T06:26:50.307Z,5
2017-03-10T06:28:01.010Z,5
2017-03-10T06:29:11.679Z,0
2017-03-10T06:30:21.585Z,0
2017-03-10T06:31:32.592Z,0
2017-03-10T06:32:42.876Z,0
2017-03-10T06:33:53.559Z,0
2017-03-10T06:35:03.424Z,0
2017-03-10T06:36:13.306Z,0
2017-03-10T06:37:23.887Z,5
2017-03-10T06:38:34.153Z,5
2017-03-10T06:39:44.448Z,5
2017-03-10T06:40:55.110Z,5
2017-03-10T06:42:05.431Z,5
2017-03-10T06:43:15.582Z,5
2017-03-10T06:44:26.264Z,5
2017-03-10T06:45:36.137Z,5
2017-03-10T06:46:46.801Z,5
2017-03-10T06:47:57.116Z,5
2017-03-10T06:49:07.266Z,5
2017-03-10T06:50:17.532Z,10
2017-03-10T06:51:27.858Z,10
2017-03-10T06:52:38.162Z,10
2017-03-10T06:53:48.431Z,10
2017-03-10T06:54:58.871Z,5
2017-03-10T06:56:09.161Z,5
2017-03-10T06:57:19.465Z,5
2017-03-10T06:58:29.742Z,5
2017-03-10T06:59:40.399Z,5
2017-03-10T07:00:50.800Z,5
2017-03-10T07:02:00.735Z,5
2017-03-10T07:03:11.429Z,5
2017-03-10T07:04:21.716Z,10
2017-03-10T07:05:32.359Z,10
2017-03-10T07:06:42.988Z,10
2017-03-10T07:07:52.870Z,10
2017-03-10T07:09:03.516Z,10
2017-03-10T07:10:13.395Z,10
2017-03-10T07:11:23.317Z,10
2017-03-10T07:12:34.345Z,10
2017-03-10T07:13:44.610Z,15
2017-03-10T07:14:55.288Z,15
2017-03-10T07:16:05.556Z,15
2017-03-10T07:17:15.842Z,10
2017-03-10T07:18:25.702Z,10
2017-03-10T07:19:36.015Z,10
2017-03-10T07:20:46.328Z,10
2017-03-10T07:21:57.020Z,10
2017-03-10T07:23:06.910Z,10
2017-03-10T07:24:17.092Z,15
2017-03-10T07:25:27.760Z,15
2017-03-10T07:26:36.923Z,15
2017-03-10T07:27:47.613Z,20
2017-03-10T07:28:57.874Z,20
2017-03-10T07:30:08.475Z,15
2017-03-10T07:31:19.150Z,15
2017-03-10T07:32:29.030Z,15
2017-03-10T07:33:39.693Z,15
2017-03-10T07:34:50.360Z,20
2017-03-10T07:36:00.501Z,20
2017-03-10T07:37:11.179Z,20
2017-03-10T07:38:21.086Z,20
2017-03-10T07:39:30.981Z,25
2017-03-10T07:40:40.479Z,25
2017-03-10T07:41:50.924Z,25
2017-03-10T07:43:01.236Z,20
2017-03-10T07:44:11.918Z,20
2017-03-10T07:45:22.604Z,20
2017-03-10T07:46:33.259Z,20
2017-03-10T07:47:43.698Z,20
2017-03-10T07:48:54.381Z,20
2017-03-10T07:50:04.677Z,20
2017-03-10T07:51:14.959Z,20
2017-03-10T07:52:25.250Z,20
2017-03-10T07:53:35.703Z,20
2017-03-10T07:54:46.382Z,20
2017-03-10T07:55:56.671Z,20
2017-03-10T07:57:07.372Z,20
2017-03-10T07:58:17.255Z,25
2017-03-10T07:59:28.077Z,25
2017-03-10T08:00:38.373Z,25
2017-03-10T08:01:49.053Z,25
2017-03-10T08:02:59.729Z,25
2017-03-10T08:04:10.002Z,30
2017-03-10T08:05:20.590Z,30
2017-03-10T08:06:30.898Z,35
2017-03-10T08:07:41.556Z,35
2017-03-10T08:08:52.225Z,40
2017-03-10T08:10:02.107Z,40
2017-03-10T08:11:12.770Z,40
2017-03-10T08:12:23.043Z,40
2017-03-10T08:13:33.317Z,40
2017-03-10T08:14:43.518Z,35
2017-03-10T08:15:54.183Z,30
2017-03-10T08:17:05.105Z,30
2017-03-10T08:18:15.395Z,30
2017-03-10T08:19:25.690Z,25
2017-03-10T08:20:35.971Z,25
2017-03-10T08:21:46.645Z,25
2017-03-10T08:22:57.160Z,25
2017-03-10T08:24:07.878Z,25
2017-03-10T08:25:18.543Z,25
2017-03-10T08:26:28.481Z,25
2017-03-10T08:27:38.742Z,25
2017-03-10T08:28:49.727Z,25
2017-03-10T08:30:00.684Z,30
2017-03-10T08:31:10.984Z,30
2017-03-10T08:32:21.259Z,40
2017-03-10T08:33:31.550Z,40
2017-03-10T08:34:41.678Z,40
2017-03-10T08:35:51.972Z,35
2017-03-10T08:37:01.472Z,35
2017-03-10T08:38:12.140Z,35
2017-03-10T08:39:22.432Z,35
2017-03-10T08:40:32.085Z,35
2017-03-10T08:41:41.605Z,40
2017-03-10T08:42:52.261Z,45
2017-03-10T08:44:02.917Z,45
2017-03-10T08:45:13.204Z,40
2017-03-10T08:46:23.286Z,40
2017-03-10T08:47:33.572Z,45
2017-03-10T08:48:44.235Z,45
2017-03-10T08:49:54.522Z,50
2017-03-10T08:51:05.190Z,50
2017-03-10T08:52:15.647Z,45
2017-03-10T08:53:25.934Z,35
2017-03-10T08:54:36.608Z,30
2017-03-10T08:55:47.282Z,30
2017-03-10T08:56:57.560Z,30
2017-03-10T08:58:07.639Z,30
2017-03-10T08:59:17.944Z,30
2017-03-10T09:00:28.219Z,35
2017-03-10T09:01:38.133Z,35
2017-03-10T09:02:48.816Z,40
2017-03-10T09:03:59.788Z,40
2017-03-10T09:05:10.463Z,40
2017-03-10T09:06:21.128Z,45
2017-03-10T09:07:31.428Z,45
2017-03-10T09:08:41.716Z,40
2017-03-10T09:09:52.356Z,40
2017-03-10T09:11:02.285Z,35
2017-03-10T09:12:12.981Z,35
2017-03-10T09:13:22.480Z,35
2017-03-10T09:14:32.767Z,35
2017-03-10T09:15:43.590Z,35
2017-03-10T09:16:54.249Z,30
2017-03-10T09:18:04.538Z,30
2017-03-10T09:19:14.843Z,35
2017-03-10T09:20:25.535Z,35
2017-03-10T09:21:36.506Z,35
2017-03-10T09:22:46.775Z,35
2017-03-10T09:23:57.109Z,30
2017-03-10T09:25:07.780Z,30
2017-03-10T09:26:18.067Z,30
2017-03-10T09:27:28.269Z,25
2017-03-10T09:28:38.174Z,25
2017-03-10T09:29:48.844Z,25
2017-03-10T09:30:59.489Z,25
2017-03-10T09:32:09.375Z,25
2017-03-10T09:33:19.921Z,25
2017-03-10T09:34:30.610Z,25
2017-03-10T09:35:40.491Z,25
2017-03-10T09:36:50.372Z,25
2017-03-10T09:38:01.049Z,25
2017-03-10T09:39:11.893Z,30
2017-03-10T09:40:22.592Z,30
2017-03-10T09:41:32.872Z,35
2017-03-10T09:42:43.559Z,40
2017-03-10T09:43:53.850Z,45
2017-03-10T09:45:03.881Z,45
2017-03-10T09:46:13.387Z,45
2017-03-10T09:47:23.669Z,45
2017-03-10T09:48:34.354Z,45
2017-03-10T09:49:45.025Z,45
2017-03-10T09:50:55.624Z,50
2017-03-10T09:52:05.916Z,50
2017-03-10T09:53:16.226Z,50
2017-03-10T09:54:26.913Z,45
2017-03-10T09:55:37.193Z,45
2017-03-10T09:56:47.629Z,40
2017-03-10T09:57:58.285Z,40
2017-03-10T09:59:08.973Z,35
2017-03-10T10:00:19.261Z,30
2017-03-10T10:01:29.537Z,30
2017-03-10T10:02:39.170Z,30
2017-03-10T10:03:48.662Z,35
2017-03-10T10:04:58.150Z,35
2017-03-10T10:06:08.807Z,35
2017-03-10T10:07:19.106Z,30
2017-03-10T10:08:29.243Z,30
2017-03-10T10:09:39.157Z,30
2017-03-10T10:10:49.051Z,30
2017-03-10T10:11:59.342Z,35
2017-03-10T10:13:09.627Z,35
2017-03-10T10:14:20.221Z,35
2017-03-10T10:15:30.103Z,40
2017-03-10T10:16:40.397Z,45
2017-03-10T10:17:51.052Z,45
2017-03-10T10:19:00.928Z,45
2017-03-10T10:20:11.381Z,45
2017-03-10T10:21:21.683Z,45
2017-03-10T10:22:32.381Z,40
2017-03-10T10:23:42.294Z,45
2017-03-10T10:24:52.609Z,45
2017-03-10T10:26:03.566Z,45
2017-03-10T10:27:13.474Z,45
2017-03-10T10:28:24.135Z,40
2017-03-10T10:29:34.828Z,40
2017-03-10T10:30:45.506Z,35
2017-03-10T10:31:55.748Z,40
2017-03-10T10:33:05.661Z,40
2017-03-10T10:34:16.349Z,40
2017-03-10T10:35:26.625Z,35
2017-03-10T10:36:37.334Z,35
2017-03-10T10:37:48.288Z,35
2017-03-10T10:38:58.562Z,30
2017-03-10T10:40:09.251Z,30
2017-03-10T10:41:19.161Z,25
2017-03-10T10:42:29.434Z,25
2017-03-10T10:43:39.634Z,25
2017-03-10T10:44:50.313Z,25
2017-03-10T10:46:00.590Z,20
2017-03-10T10:47:10.883Z,20
2017-03-10T10:48:21.544Z,25
2017-03-10T10:49:32.573Z,25
2017-03-10T10:50:42.875Z,25
2017-03-10T10:51:53.163Z,25
2017-03-10T10:53:03.449Z,25
2017-03-10T10:54:12.967Z,20
2017-03-10T10:55:23.740Z,20
2017-03-10T10:56:34.019Z,20
2017-03-10T10:57:43.925Z,20
2017-03-10T10:58:54.233Z,20
2017-03-10T11:00:04.525Z,20
2017-03-10T11:01:14.974Z,25
2017-03-10T11:02:24.464Z,25
2017-03-10T11:03:34.806Z,25
2017-03-10T11:04:45.507Z,20
2017-03-10T11:05:56.166Z,20
2017-03-10T11:07:05.918Z,20
2017-03-10T11:08:16.601Z,20
2017-03-10T11:09:26.481Z,20
2017-03-10T11:10:36.816Z,20
2017-03-10T11:11:47.138Z,20
2017-03-10T11:12:57.584Z,20
2017-03-10T11:14:07.502Z,20
2017-03-10T11:15:18.185Z,20
2017-03-10T11:16:28.902Z,20
2017-03-10T11:17:39.213Z,20
2017-03-10T11:18:49.671Z,20
2017-03-10T11:19:59.870Z,20
2017-03-10T11:21:10.162Z,20
2017-03-10T11:22:20.852Z,20
2017-03-10T11:23:31.162Z,20
2017-03-10T11:24:41.988Z,20
2017-03-10T11:25:52.263Z,20
2017-03-10T11:27:02.553Z,20
2017-03-10T11:28:12.832Z,20
2017-03-10T11:29:23.123Z,20
2017-03-10T11:30:33.198Z,20
2017-03-10T11:31:43.488Z,20
2017-03-10T11:32:54.173Z,20
2017-03-10T11:34:04.446Z,20
2017-03-10T11:35:13.952Z,20
2017-03-10T11:36:24.345Z,20
2017-03-10T11:37:34.612Z,20
2017-03-10T11:38:45.414Z,20
2017-03-10T11:39:55.713Z,20
2017-03-10T11:41:06.000Z,20
2017-03-10T11:42:16.943Z,20
2017-03-10T11:43:27.624Z,20
2017-03-10T11:44:37.496Z,20
2017-03-10T11:45:47.793Z,20
2017-03-10T11:46:58.441Z,20
2017-03-10T11:48:09.351Z,20
2017-03-10T11:49:20.032Z,20
2017-03-10T11:50:30.703Z,20
2017-03-10T11:51:40.619Z,20
2017-03-10T11:52:50.893Z,20
2017-03-10T11:54:01.941Z,20
2017-03-10T11:55:12.246Z,20
2017-03-10T11:56:22.497Z,20
2017-03-10T11:57:32.771Z,20
2017-03-10T11:58:43.091Z,20
2017-03-10T11:59:53.949Z,20
2017-03-10T12:01:04.253Z,20
2017-03-10T12:02:14.935Z,20
2017-03-10T12:03:24.833Z,20
2017-03-10T12:04:34.369Z,20
2017-03-10T12:05:45.004Z,20
2017-03-10T12:06:54.889Z,20
2017-03-10T12:08:04.380Z,20
2017-03-10T12:09:14.306Z,20
2017-03-10T12:10:24.189Z,20
2017-03-10T12:11:34.180Z,20
2017-03-10T12:12:44.459Z,20
2017-03-10T12:13:55.143Z,20
2017-03-10T12:15:05.431Z,20
2017-03-10T12:16:16.147Z,20
2017-03-10T12:17:27.164Z,20
2017-03-10T12:18:37.552Z,20
2017-03-10T12:19:48.226Z,20
2017-03-10T12:20:58.896Z,20
2017-03-10T12:22:09.579Z,20
2017-03-10T12:23:20.454Z,20
2017-03-10T12:24:30.764Z,20
2017-03-10T12:25:41.031Z,20
2017-03-10T12:26:51.340Z,20
2017-03-10T12:28:00.910Z,20
2017-03-10T12:29:11.440Z,20
2017-03-10T12:30:21.352Z,20
2017-03-10T12:31:31.661Z,20
2017-03-10T12:32:41.590Z,20
2017-03-10T12:33:52.267Z,20
2017-03-10T12:35:03.046Z,20
2017-03-10T12:36:13.743Z,20
2017-03-10T12:37:23.238Z,20
2017-03-10T12:38:33.952Z,20
2017-03-10T12:39:43.834Z,20
2017-03-10T12:40:54.470Z,20
2017-03-10T12:42:04.790Z,20
2017-03-10T12:43:15.478Z,20
2017-03-10T12:44:25.782Z,20
2017-03-10T12:45:36.064Z,20
2017-03-10T12:46:46.893Z,20
2017-03-10T12:47:56.765Z,20
2017-03-10T12:49:07.442Z,20
2017-03-10T12:50:17.727Z,20
2017-03-10T12:51:28.404Z,20
2017-03-10T12:52:38.876Z,20
2017-03-10T12:53:49.163Z,20
2017-03-10T12:54:59.841Z,20
2017-03-10T12:56:10.519Z,20
2017-03-10T12:57:21.199Z,20
2017-03-10T12:58:32.000Z,20
2017-03-10T12:59:42.695Z,20
2017-03-10T13:00:53.373Z,20
2017-03-10T13:02:04.026Z,20
2017-03-10T13:03:14.332Z,20
2017-03-10T13:04:25.304Z,20
2017-03-10T13:05:35.984Z,20
2017-03-10T13:06:46.291Z,20
2017-03-10T13:07:56.975Z,20
2017-03-10T13:09:07.677Z,20
2017-03-10T13:10:18.429Z,20
2017-03-10T13:11:28.707Z,20
2017-03-10T13:12:38.622Z,20
2017-03-10T13:13:48.495Z,20
2017-03-10T13:14:58.768Z,20
2017-03-10T13:16:09.744Z,20
2017-03-10T13:17:19.633Z,20
2017-03-10T13:18:29.898Z,20
2017-03-10T13:19:40.552Z,20
2017-03-10T13:20:50.883Z,20
2017-03-10T13:22:01.033Z,20
2017-03-10T13:23:10.542Z,20
2017-03-10T13:24:20.824Z,20
2017-03-10T13:25:31.110Z,20
2017-03-10T13:26:41.420Z,20
2017-03-10T13:27:52.228Z,20
2017-03-10T13:29:02.923Z,20
2017-03-10T13:30:12.840Z,20
2017-03-10T13:31:22.335Z,20
2017-03-10T13:32:32.899Z,20
2017-03-10T13:33:43.482Z,20
2017-03-10T13:34:54.136Z,20
2017-03-10T13:36:04.837Z,20
2017-03-10T13:37:15.493Z,20
2017-03-10T13:38:25.772Z,15
2017-03-10T13:39:36.215Z,20
2017-03-10T13:40:46.110Z,20
2017-03-10T13:41:56.402Z,20
2017-03-10T13:43:06.681Z,20
2017-03-10T13:44:16.964Z,20
2017-03-10T13:45:27.736Z,20
2017-03-10T13:46:38.012Z,20
2017-03-10T13:47:48.288Z,20
2017-03-10T13:48:58.972Z,20
2017-03-10T13:50:09.245Z,20
2017-03-10T13:51:19.282Z,20
2017-03-10T13:52:29.185Z,20
2017-03-10T13:53:39.884Z,20
2017-03-10T13:54:49.422Z,20
2017-03-10T13:56:00.102Z,20
2017-03-10T13:57:10.539Z,20
2017-03-10T13:58:20.813Z,20
2017-03-10T13:59:31.461Z,20
2017-03-10T14:00:41.726Z,20
2017-03-10T14:01:51.619Z,20
2017-03-10T14:03:02.437Z,20
2017-03-10T14:04:12.708Z,20
2017-03-10T14:05:22.596Z,20
2017-03-10T14:06:33.253Z,20
2017-03-10T14:07:43.133Z,20
2017-03-10T14:08:53.574Z,25
2017-03-10T14:10:04.244Z,25
2017-03-10T14:11:14.123Z,25
2017-03-10T14:12:24.400Z,25
2017-03-10T14:13:34.673Z,25
2017-03-10T14:14:45.210Z,25
2017-03-10T14:15:55.501Z,20
2017-03-10T14:17:05.784Z,20
2017-03-10T14:18:16.055Z,25
2017-03-10T14:19:26.340Z,25
2017-03-10T14:20:37.279Z,25
2017-03-10T14:21:47.936Z,25
2017-03-10T14:22:58.220Z,25
2017-03-10T14:24:08.122Z,25
2017-03-10T14:25:18.407Z,25
2017-03-10T14:26:29.311Z,25
2017-03-10T14:27:39.991Z,25
2017-03-10T14:28:50.261Z,25
2017-03-10T14:30:00.182Z,25
2017-03-10T14:31:10.493Z,25
2017-03-10T14:32:21.071Z,25
2017-03-10T14:33:31.725Z,25
2017-03-10T14:34:41.612Z,25
2017-03-10T14:35:52.264Z,25
2017-03-10T14:37:02.157Z,25
2017-03-10T14:38:12.795Z,25
2017-03-10T14:39:23.469Z,20
2017-03-10T14:40:33.369Z,20
2017-03-10T14:41:43.260Z,20
2017-03-10T14:42:53.954Z,20
2017-03-10T14:44:04.555Z,20
2017-03-10T14:45:14.472Z,20
2017-03-10T14:46:24.793Z,20
2017-03-10T14:47:35.459Z,20
2017-03-10T14:48:46.121Z,20
2017-03-10T14:49:57.115Z,20
2017-03-10T14:51:07.768Z,20
2017-03-10T14:52:17.649Z,20
2017-03-10T14:53:28.345Z,20
2017-03-10T14:54:39.009Z,20
2017-03-10T14:55:49.465Z,20
2017-03-10T14:56:59.761Z,20
2017-03-10T14:58:10.050Z,20
2017-03-10T14:59:20.709Z,20
2017-03-10T15:00:31.362Z,20
2017-03-10T15:01:41.981Z,20
2017-03-10T15:02:52.309Z,20
2017-03-10T15:04:02.945Z,20
2017-03-10T15:05:13.251Z,20
2017-03-10T15:06:23.135Z,20
2017-03-10T15:07:33.688Z,20
2017-03-10T15:08:44.366Z,20
2017-03-10T15:09:54.301Z,20
2017-03-10T15:11:04.604Z,15
2017-03-10T15:12:14.488Z,15
2017-03-10T15:13:25.847Z,15
2017-03-10T15:14:35.353Z,15
2017-03-10T15:15:45.643Z,15
2017-03-10T15:16:56.313Z,15
2017-03-10T15:18:07.016Z,15
2017-03-10T15:19:17.865Z,15
2017-03-10T15:20:28.545Z,15
2017-03-10T15:21:39.246Z,15
2017-03-10T15:22:49.921Z,15
2017-03-10T15:24:00.607Z,15
2017-03-10T15:25:10.312Z,15
2017-03-10T15:26:20.989Z,15
2017-03-10T15:27:31.686Z,15
2017-03-10T15:28:41.954Z,15
2017-03-10T15:29:52.671Z,15
2017-03-10T15:31:02.815Z,15
2017-03-10T15:32:12.691Z,15
2017-03-10T15:33:23.351Z,20
2017-03-10T15:34:33.618Z,20
2017-03-10T15:35:43.891Z,15
2017-03-10T15:36:54.139Z,20
2017-03-10T15:38:04.817Z,20
2017-03-10T15:39:15.505Z,20
2017-03-10T15:40:25.792Z,20
2017-03-10T15:41:36.076Z,20
2017-03-10T15:42:46.497Z,20
2017-03-10T15:43:56.765Z,20
2017-03-10T15:45:07.437Z,20
2017-03-10T15:46:17.727Z,20
2017-03-10T15:47:28.383Z,20
2017-03-10T15:48:38.818Z,20
2017-03-10T15:49:49.490Z,20
2017-03-10T15:50:59.768Z,20
2017-03-10T15:52:10.459Z,20
2017-03-10T15:53:21.138Z,20
2017-03-10T15:54:31.972Z,20
2017-03-10T15:55:42.239Z,15
2017-03-10T15:56:52.176Z,15
2017-03-10T15:58:01.693Z,15
2017-03-10T15:59:12.380Z,15
2017-03-10T16:00:22.559Z,15
2017-03-10T16:01:33.233Z,15
2017-03-10T16:02:43.111Z,15
2017-03-10T16:03:53.448Z,15
2017-03-10T16:05:04.159Z,15
2017-03-10T16:06:14.627Z,15
2017-03-10T16:07:25.286Z,15
2017-03-10T16:08:35.561Z,15
2017-03-10T16:09:46.215Z,15
2017-03-10T16:10:56.500Z,15
2017-03-10T16:12:07.059Z,15
2017-03-10T16:13:16.932Z,15
2017-03-10T16:14:27.613Z,15
2017-03-10T16:15:38.300Z,15
2017-03-10T16:16:48.201Z,15
2017-03-10T16:17:59.107Z,15
2017-03-10T16:19:09.395Z,15
2017-03-10T16:20:19.286Z,15
2017-03-10T16:21:29.969Z,15
2017-03-10T16:22:40.262Z,15
2017-03-10T16:23:50.884Z,10
2017-03-10T16:25:00.771Z,10
2017-03-10T16:26:11.093Z,10
2017-03-10T16:27:20.967Z,10
2017-03-10T16:28:30.870Z,10
2017-03-10T16:29:41.797Z,10
2017-03-10T16:30:52.480Z,10
2017-03-10T16:32:03.138Z,10
2017-03-10T16:33:13.808Z,10
2017-03-10T16:34:24.514Z,10
2017-03-10T16:35:35.544Z,10
2017-03-10T16:36:46.234Z,10
2017-03-10T16:37:56.906Z,10
2017-03-10T16:39:07.607Z,5
2017-03-10T16:40:18.263Z,5
2017-03-10T16:41:28.843Z,5
2017-03-10T16:42:39.565Z,5
2017-03-10T16:43:49.871Z,5
2017-03-10T16:45:00.584Z,5
2017-03-10T16:46:11.270Z,5
2017-03-10T16:47:22.086Z,5
2017-03-10T16:48:32.356Z,5
2017-03-10T16:49:42.640Z,5
2017-03-10T16:50:52.933Z,5
2017-03-10T16:52:02.848Z,5
2017-03-10T16:53:13.270Z,5
2017-03-10T16:54:23.561Z,5
2017-03-10T16:55:34.539Z,5
2017-03-10T16:56:45.252Z,5
2017-03-10T16:57:55.922Z,5
2017-03-10T16:59:05.926Z,5
2017-03-10T17:00:16.585Z,0